Time;durP1;ratioP1;P1;durP2;ratioP2;P2;SDS_P1;SDS_P2;PMS_P1;PMS_P2;Temp;Humidity;BMP_temperature;BMP_pressure;BME280_temperature;BME280_humidity;BME280_pressure;Samples;Min_cycle;Max_cycle;Signal;HPM_P1;HPM_P2
2021/10/17 00:00:29;;;;;;;11.10;4.58;;;;;;;8.24;78.81;101355.09;1695021;83;20915;-74
2021/10/17 00:02:55;;;;;;;13.18;5.90;;;;;;;8.24;78.80;101354.67;1696610;83;20895;-74
2021/10/17 00:05:31;;;;;;;10.28;5.53;;;;;;;8.25;78.83;101360.68;1700499;83;20945;-74
2021/10/17 00:07:58;;;;;;;10.93;5.70;;;;;;;8.24;78.85;101360.25;1698578;82;20895;-74
2021/10/17 00:10:31;;;;;;;12.00;5.55;;;;;;;8.23;78.85;101358.09;1697472;83;20911;-74
2021/10/17 00:13:03;;;;;;;13.62;5.55;;;;;;;8.24;78.84;101355.95;1699627;83;20938;-74
2021/10/17 00:15:31;;;;;;;14.58;6.08;;;;;;;8.23;78.87;101360.67;1699198;83;20945;-74
2021/10/17 00:18:00;;;;;;;11.22;5.53;;;;;;;8.22;78.86;101357.66;1698284;83;20895;-74
2021/10/17 00:20:26;;;;;;;13.43;6.00;;;;;;;8.21;78.92;101354.65;1693340;83;20878;-74
2021/10/17 00:22:53;;;;;;;18.05;5.62;;;;;;;8.22;78.94;101358.95;1690872;83;20941;-74
2021/10/17 00:25:20;;;;;;;12.85;5.28;;;;;;;8.23;78.95;101363.25;1670459;83;27112;-74
2021/10/17 00:27:46;;;;;;;;;;;;;;;8.24;78.97;101363.69;1700035;84;20922;-74
2021/10/17 00:30:15;;;;;;;14.70;5.58;;;;;;;8.25;79.12;101361.97;1698303;83;20106;-74
2021/10/17 00:32:41;;;;;;;12.18;5.80;;;;;;;8.24;79.00;101357.24;1695762;83;20950;-74
2021/10/17 00:35:08;;;;;;;;;;;;;;;8.25;79.02;101358.11;1678527;84;20902;-74
2021/10/17 00:37:37;;;;;;;10.25;4.67;;;;;;;8.24;79.12;101358.53;1700152;83;20120;-74
2021/10/17 00:40:08;;;;;;;8.40;4.67;;;;;;;8.24;79.07;101352.52;1674868;84;20927;-73
2021/10/17 00:42:35;;;;;;;9.60;4.62;;;;;;;8.23;79.05;101355.95;1694450;83;20926;-73
2021/10/17 00:45:06;;;;;;;13.28;5.70;;;;;;;8.24;79.11;101353.38;1698345;84;20891;-73
2021/10/17 00:47:32;;;;;;;12.43;5.22;;;;;;;8.23;79.10;101347.79;1678835;83;20914;-74
2021/10/17 00:49:58;;;;;;;15.57;5.20;;;;;;;8.24;79.11;101339.63;1699045;83;21359;-74
2021/10/17 00:52:24;;;;;;;10.68;5.20;;;;;;;8.25;79.13;101340.93;1699257;83;20906;-74
2021/10/17 00:54:51;;;;;;;9.30;4.80;;;;;;;8.25;79.14;101340.06;1700528;83;20922;-74
2021/10/17 00:57:19;;;;;;;9.03;4.87;;;;;;;8.24;79.14;101335.77;1674819;83;20898;-74
2021/10/17 00:59:46;;;;;;;12.30;4.60;;;;;;;8.23;79.13;101334.05;1690296;84;20850;-74
2021/10/17 01:02:12;;;;;;;11.35;4.92;;;;;;;8.21;79.16;101331.46;1686288;82;20918;-74
2021/10/17 01:04:39;;;;;;;8.28;4.33;;;;;;;8.21;79.19;101328.03;1683637;83;20874;-74
2021/10/17 01:07:07;;;;;;;10.70;4.65;;;;;;;8.21;79.19;101328.89;1699584;83;20862;-74
2021/10/17 01:09:38;;;;;;;10.93;4.28;;;;;;;8.22;79.23;101334.47;1686266;82;20870;-74
2021/10/17 01:12:06;;;;;;;9.63;4.25;;;;;;;8.22;79.22;101329.32;1692676;83;20954;-74
2021/10/17 01:14:32;;;;;;;7.92;4.00;;;;;;;8.21;79.21;101322.45;1700037;82;20903;-74
2021/10/17 01:16:59;;;;;;;7.97;3.92;;;;;;;8.21;79.25;101327.59;1690108;83;25305;-74
2021/10/17 01:19:26;;;;;;;12.93;4.70;;;;;;;8.21;79.27;101321.58;1692452;84;20906;-74
2021/10/17 01:21:52;;;;;;;9.80;4.42;;;;;;;8.19;79.29;101312.98;1678721;83;22009;-74
2021/10/17 01:24:18;;;;;;;10.90;4.37;;;;;;;8.19;79.31;101323.29;1687632;84;20851;-74
2021/10/17 01:26:46;;;;;;;8.98;3.80;;;;;;;8.20;79.35;101318.57;1699009;83;20934;-74
2021/10/17 01:29:13;;;;;;;8.90;4.00;;;;;;;8.20;79.34;101322.44;1700416;83;20906;-74
2021/10/17 01:31:50;;;;;;;7.97;4.10;;;;;;;8.19;79.31;101322.87;1692067;83;20898;-74
2021/10/17 01:34:21;;;;;;;8.23;4.05;;;;;;;8.19;79.35;101321.58;1699389;82;20926;-74
2021/10/17 01:36:48;;;;;;;6.85;4.28;;;;;;;8.19;79.37;101320.29;1691759;82;20942;-74
2021/10/17 01:39:17;;;;;;;;;;;;;;;8.18;79.39;101313.84;1708395;82;20901;-74
2021/10/17 01:41:46;;;;;;;9.03;4.30;;;;;;;8.18;79.53;101321.56;1708187;83;20096;-74
2021/10/17 01:44:29;;;;;;;6.40;4.10;;;;;;;8.17;79.42;101314.70;1695726;82;20922;-74
2021/10/17 01:46:58;;;;;;;8.63;4.20;;;;;;;8.17;79.46;101314.27;1687645;84;20922;-74
2021/10/17 01:49:25;;;;;;;13.13;4.40;;;;;;;8.15;79.42;101310.82;1712181;83;20909;-74
2021/10/17 01:51:51;;;;;;;9.73;4.53;;;;;;;8.14;79.44;101314.25;1689740;82;20875;-74
2021/10/17 01:54:23;;;;;;;11.55;3.72;;;;;;;8.15;79.49;101309.96;1696630;84;20925;-74
2021/10/17 01:56:50;;;;;;;13.62;4.33;;;;;;;8.14;79.47;101307.81;1702585;82;20945;-74
2021/10/17 01:59:16;;;;;;;8.78;3.42;;;;;;;8.14;79.45;101304.37;1703420;84;20969;-74
2021/10/17 02:01:44;;;;;;;7.55;3.42;;;;;;;8.13;79.44;101305.23;1704702;82;20902;-74
2021/10/17 02:04:10;;;;;;;6.67;3.60;;;;;;;8.12;79.46;101306.08;1683786;82;20945;-74
2021/10/17 02:06:36;;;;;;;9.35;3.80;;;;;;;8.12;79.41;101308.66;1701503;82;20898;-73
2021/10/17 02:09:03;;;;;;;6.63;4.00;;;;;;;8.11;79.49;101301.78;1692977;82;20962;-73
2021/10/17 02:11:29;;;;;;;7.97;3.50;;;;;;;8.11;79.48;101303.07;1705487;83;21070;-74
2021/10/17 02:13:57;;;;;;;6.35;3.33;;;;;;;8.12;79.49;101298.35;1705248;82;20946;-74
2021/10/17 02:16:23;;;;;;;12.37;3.62;;;;;;;8.10;79.43;101297.05;1690453;83;21042;-74
2021/10/17 02:18:48;;;;;;;11.27;3.90;;;;;;;8.10;79.41;101299.63;1698049;82;20827;-74
2021/10/17 02:21:15;;;;;;;;;;;;;;;8.09;79.45;101299.62;1707669;83;20942;-74
2021/10/17 02:23:41;;;;;;;8.70;2.90;;;;;;;8.08;79.44;101294.03;1704700;82;20154;-74
2021/10/17 02:26:07;;;;;;;7.13;3.27;;;;;;;8.09;79.40;101291.89;1703159;82;21620;-74
2021/10/17 02:28:34;;;;;;;7.37;3.30;;;;;;;8.07;79.44;101290.60;1706040;82;20926;-74
2021/10/17 02:31:00;;;;;;;5.45;2.85;;;;;;;8.09;79.46;101290.61;1687629;82;21058;-74
2021/10/17 02:33:33;;;;;;;6.55;2.90;;;;;;;8.09;79.41;101297.05;1692359;82;20922;-74
2021/10/17 02:36:00;;;;;;;5.90;3.12;;;;;;;8.09;79.43;101297.05;1694065;83;20922;-74
2021/10/17 02:38:27;;;;;;;7.30;3.05;;;;;;;8.07;79.36;101294.47;1688622;83;20886;-74
2021/10/17 02:41:08;;;;;;;6.83;2.70;;;;;;;8.06;79.35;101293.17;1701553;83;20902;-74
2021/10/17 02:43:34;;;;;;;9.07;2.93;;;;;;;8.07;79.39;101291.89;1689640;83;21514;-74
2021/10/17 02:46:01;;;;;;;6.28;2.77;;;;;;;8.01;79.38;101278.12;1693813;83;20966;-74
2021/10/17 02:48:27;;;;;;;6.22;2.40;;;;;;;8.04;79.38;101280.28;1694620;83;21521;-74
2021/10/17 02:50:53;;;;;;;7.07;2.93;;;;;;;8.03;79.40;101283.71;1694566;83;20958;-74
2021/10/17 02:53:19;;;;;;;6.90;2.93;;;;;;;8.02;79.42;101278.13;1702866;83;21717;-74
2021/10/17 02:55:45;;;;;;;5.23;2.67;;;;;;;8.02;79.44;101283.28;1700167;83;21004;-74
2021/10/17 02:58:11;;;;;;;6.75;2.87;;;;;;;8.00;79.41;101278.97;1693188;83;21097;-74
2021/10/17 03:00:40;;;;;;;5.85;2.60;;;;;;;7.99;79.41;101281.97;1704277;83;21033;-74
2021/10/17 03:03:06;;;;;;;6.40;2.97;;;;;;;7.97;79.45;101278.10;1694024;81;20937;-74
2021/10/17 03:05:33;;;;;;;9.08;2.90;;;;;;;7.97;79.50;101280.67;1690139;83;21085;-74
2021/10/17 03:07:59;;;;;;;6.72;2.90;;;;;;;7.98;79.46;101282.83;1678968;83;20977;-74
2021/10/17 03:10:25;;;;;;;4.03;2.40;;;;;;;7.98;79.49;101286.27;1700517;83;21132;-74
2021/10/17 03:12:52;;;;;;;4.03;2.83;;;;;;;8.01;79.49;101283.27;1707379;83;21046;-74
2021/10/17 03:15:18;;;;;;;8.70;2.90;;;;;;;7.99;79.51;101276.82;1705952;82;21056;-74
2021/10/17 03:17:46;;;;;;;10.45;3.00;;;;;;;7.99;79.53;101276.82;1696676;83;21093;-74
2021/10/17 03:20:13;;;;;;;6.60;3.02;;;;;;;7.99;79.52;101281.97;1683575;83;21069;-74
2021/10/17 03:22:39;;;;;;;9.60;3.27;;;;;;;7.98;79.52;101280.25;1687195;83;20938;-74
2021/10/17 03:25:07;;;;;;;10.43;3.60;;;;;;;7.97;79.53;101274.66;1697829;83;20942;-74
2021/10/17 03:27:33;;;;;;;8.45;3.95;;;;;;;7.98;79.58;101277.67;1699767;83;21116;-74
2021/10/17 03:29:59;;;;;;;9.83;4.03;;;;;;;7.98;79.57;101276.39;1679979;83;20902;-74
2021/10/17 03:32:25;;;;;;;6.60;3.57;;;;;;;8.00;79.60;101275.11;1700479;83;20918;-74
2021/10/17 03:34:51;;;;;;;10.83;4.20;;;;;;;7.99;79.60;101276.82;1688937;83;21181;-74
2021/10/17 03:37:17;;;;;;;10.68;3.90;;;;;;;8.01;79.61;101278.12;1691486;83;20906;-74
2021/10/17 03:39:44;;;;;;;5.33;3.45;;;;;;;8.00;79.60;101273.82;1708321;82;20898;-74
2021/10/17 03:42:10;;;;;;;5.50;3.67;;;;;;;8.00;79.64;101277.26;1705257;82;21024;-74
2021/10/17 03:44:36;;;;;;;9.27;4.27;;;;;;;8.00;79.60;101277.69;1705567;82;20895;-74
2021/10/17 03:47:03;;;;;;;6.22;3.50;;;;;;;7.98;79.61;101273.81;1700415;83;20901;-74
2021/10/17 03:49:30;;;;;;;;;;;;;;;7.98;79.64;101273.39;1695887;83;20949;-74
2021/10/17 03:51:56;;;;;;;9.28;3.67;;;;;;;7.98;79.72;101273.39;1698458;82;20095;-74
2021/10/17 03:54:22;;;;;;;5.43;3.80;;;;;;;7.97;79.65;101271.66;1704189;82;21683;-74
2021/10/17 03:56:48;;;;;;;5.17;3.37;;;;;;;7.97;79.65;101274.66;1684432;82;20910;-74
2021/10/17 03:59:18;;;;;;;10.40;3.85;;;;;;;7.97;79.65;101279.39;1696911;83;20878;-74
2021/10/17 04:01:44;;;;;;;7.77;3.70;;;;;;;7.97;79.66;101273.38;1706345;83;20878;-74
2021/10/17 04:04:10;;;;;;;7.20;4.07;;;;;;;7.97;79.64;101277.24;1695713;82;20910;-74
2021/10/17 04:06:37;;;;;;;10.23;4.27;;;;;;;7.96;79.68;101269.08;1691600;82;21182;-74
2021/10/17 04:09:03;;;;;;;5.50;2.98;;;;;;;7.95;79.58;101265.64;1700203;82;21607;-74
2021/10/17 04:11:32;;;;;;;5.97;3.17;;;;;;;7.96;79.69;101272.95;1705312;83;20914;-74
2021/10/17 04:13:58;;;;;;;7.35;3.87;;;;;;;7.95;79.67;101268.22;1697963;82;20902;-74
2021/10/17 04:16:24;;;;;;;10.03;3.43;;;;;;;7.95;79.67;101266.94;1684514;82;20934;-74
2021/10/17 04:18:50;;;;;;;7.87;3.57;;;;;;;7.94;79.69;101272.94;1705208;82;20949;-74
2021/10/17 04:21:16;;;;;;;9.17;3.70;;;;;;;7.95;79.72;101267.36;1702078;82;21258;-74
2021/10/17 04:23:42;;;;;;;8.87;3.83;;;;;;;7.95;79.70;101270.80;1686795;84;20961;-74
2021/10/17 04:26:11;;;;;;;7.28;4.12;;;;;;;7.94;79.68;101261.34;1686624;82;20890;-74
2021/10/17 04:28:37;;;;;;;8.80;4.43;;;;;;;7.95;79.71;101259.63;1702521;82;20944;-74
2021/10/17 04:31:03;;;;;;;9.68;3.98;;;;;;;7.96;79.72;101258.78;1699666;82;20977;-74
2021/10/17 04:33:32;;;;;;;8.43;4.70;;;;;;;7.96;79.73;101259.64;1690942;84;20926;-73
2021/10/17 04:35:58;;;;;;;9.20;4.40;;;;;;;7.97;79.74;101257.92;1705591;82;20910;-73
2021/10/17 04:38:24;;;;;;;11.93;5.30;;;;;;;7.98;79.71;101259.65;1706518;83;20822;-74
2021/10/17 04:40:50;;;;;;;6.53;4.60;;;;;;;7.95;79.72;101261.78;1695224;82;20909;-74
2021/10/17 04:43:16;;;;;;;7.77;4.53;;;;;;;7.95;79.76;101266.94;1694614;83;21550;-74
2021/10/17 04:45:44;;;;;;;9.80;4.37;;;;;;;7.95;79.72;101268.22;1697134;84;20905;-74
2021/10/17 04:48:10;;;;;;;6.30;4.60;;;;;;;7.95;79.73;101269.50;1703921;83;20867;-74
2021/10/17 04:50:36;;;;;;;9.70;4.10;;;;;;;7.93;79.71;101267.34;1701710;82;21662;-74
2021/10/17 04:53:03;;;;;;;7.22;4.30;;;;;;;7.92;79.72;101264.34;1705530;84;20937;-74
2021/10/17 04:55:29;;;;;;;11.22;4.80;;;;;;;7.82;79.70;101257.42;1705408;82;20871;-73
2021/10/17 04:57:55;;;;;;;7.87;4.40;;;;;;;7.90;79.70;101267.76;1704383;82;20886;-74
2021/10/17 05:00:21;;;;;;;8.20;4.00;;;;;;;7.90;79.71;101267.33;1704126;83;20945;-74
2021/10/17 05:02:47;;;;;;;7.70;4.00;;;;;;;7.88;79.72;101265.17;1696129;84;20895;-74
2021/10/17 05:05:13;;;;;;;6.90;3.77;;;;;;;7.89;79.71;101269.90;1702940;82;20979;-74
2021/10/17 05:07:39;;;;;;;7.80;3.83;;;;;;;7.88;79.72;101265.17;1689559;82;20882;-74
2021/10/17 05:10:09;;;;;;;8.58;3.60;;;;;;;7.88;79.76;101262.59;1680141;83;20922;-74
2021/10/17 05:12:35;;;;;;;8.08;2.98;;;;;;;7.87;79.74;101265.17;1700043;84;20905;-74
2021/10/17 05:15:01;;;;;;;4.30;3.00;;;;;;;7.88;79.81;101260.45;1695754;84;21612;-74
2021/10/17 05:17:26;;;;;;;6.57;3.30;;;;;;;7.87;79.77;101263.45;1702134;83;20862;-74
2021/10/17 05:19:52;;;;;;;6.63;3.10;;;;;;;7.87;79.77;101260.02;1694223;84;20882;-74
2021/10/17 05:22:20;;;;;;;4.40;3.10;;;;;;;7.86;79.76;101264.73;1701808;83;20874;-74
2021/10/17 05:24:46;;;;;;;7.45;3.17;;;;;;;7.85;79.76;101265.58;1702627;82;20914;-74
2021/10/17 05:27:12;;;;;;;6.47;3.37;;;;;;;7.85;79.78;101274.59;1704162;82;20862;-74
2021/10/17 05:29:38;;;;;;;9.03;3.70;;;;;;;7.85;79.76;101281.03;1685743;83;20886;-74
2021/10/17 05:32:05;;;;;;;6.93;3.00;;;;;;;7.84;79.76;101275.45;1694444;82;20875;-74
2021/10/17 05:34:31;;;;;;;;;;;;;;;7.83;79.80;101279.73;1689972;82;20929;-74
2021/10/17 05:36:57;;;;;;;6.08;2.90;;;;;;;7.83;79.78;101272.44;1686348;84;20223;-75
2021/10/17 05:39:24;;;;;;;5.20;3.23;;;;;;;7.81;79.79;101277.58;1661253;84;20890;-75
2021/10/17 05:41:50;;;;;;;6.92;3.17;;;;;;;7.83;79.79;101278.88;1644937;85;21397;-75
2021/10/17 05:44:16;;;;;;;6.33;3.23;;;;;;;7.82;79.82;101279.30;1658333;84;20926;-75
2021/10/17 05:46:42;;;;;;;3.77;2.60;;;;;;;7.81;79.78;101268.99;1660277;84;20874;-75
2021/10/17 05:49:08;;;;;;;4.87;2.50;;;;;;;7.80;79.78;101270.70;1657473;84;20972;-75
2021/10/17 05:51:34;;;;;;;4.45;3.02;;;;;;;7.80;79.82;101270.70;1659413;84;20977;-75
2021/10/17 05:54:00;;;;;;;8.03;3.20;;;;;;;7.81;79.83;101277.58;1659289;84;20965;-74
2021/10/17 05:56:26;;;;;;;3.70;2.50;;;;;;;7.80;79.86;101270.70;1664078;84;20930;-74
2021/10/17 05:58:52;;;;;;;6.87;3.10;;;;;;;7.82;79.84;101280.59;1650734;84;21515;-74
2021/10/17 06:01:19;;;;;;;9.05;3.17;;;;;;;7.83;79.87;101278.88;1672422;83;20878;-74
2021/10/17 06:03:45;;;;;;;8.43;3.20;;;;;;;7.85;79.87;101278.03;1672955;84;20957;-74
2021/10/17 06:06:13;;;;;;;5.30;3.07;;;;;;;7.86;79.88;101286.62;1660424;84;20965;-74
2021/10/17 06:08:39;;;;;;;7.08;3.20;;;;;;;7.87;79.87;101291.77;1664709;84;21415;-74
2021/10/17 06:11:06;;;;;;;6.90;2.97;;;;;;;7.89;79.91;101293.08;1662558;84;20892;-74
2021/10/17 06:13:33;;;;;;;5.22;2.83;;;;;;;7.88;79.87;101287.06;1661015;84;21203;-74
2021/10/17 06:15:59;;;;;;;6.33;2.72;;;;;;;7.88;79.90;101285.77;1652911;84;21187;-74
2021/10/17 06:18:25;;;;;;;6.57;3.60;;;;;;;7.89;79.90;101292.64;1649072;84;20905;-74
2021/10/17 06:20:51;;;;;;;12.17;4.93;;;;;;;7.89;79.87;101288.78;1664281;83;21675;-74
2021/10/17 06:23:17;;;;;;;11.10;4.93;;;;;;;7.88;79.86;101287.06;1663602;84;21375;-74
2021/10/17 06:25:43;;;;;;;9.00;4.73;;;;;;;7.88;79.85;101287.06;1667843;84;20855;-74
2021/10/17 06:28:10;;;;;;;7.23;4.77;;;;;;;7.89;79.82;101287.92;1662674;84;20922;-74
2021/10/17 06:30:36;;;;;;;9.68;5.03;;;;;;;7.88;79.85;101289.64;1666822;84;20961;-74
2021/10/17 06:33:06;;;;;;;10.23;5.62;;;;;;;7.88;79.87;101290.92;1665183;84;20907;-74
2021/10/17 06:35:32;;;;;;;7.55;5.10;;;;;;;7.89;79.87;101293.94;1659201;84;21506;-72
2021/10/17 06:37:58;;;;;;;11.23;5.27;;;;;;;7.91;79.87;101295.23;1688205;83;20977;-72
2021/10/17 06:40:24;;;;;;;9.73;5.33;;;;;;;7.91;79.86;101294.80;1701763;84;21004;-72
2021/10/17 06:42:50;;;;;;;9.60;5.53;;;;;;;7.92;79.85;101291.37;1687851;82;20905;-72
2021/10/17 06:45:16;;;;;;;9.90;5.90;;;;;;;7.93;79.84;101293.10;1691566;84;20981;-72
2021/10/17 06:47:42;;;;;;;11.65;5.70;;;;;;;7.95;79.85;101290.53;1699287;82;20957;-72
2021/10/17 06:50:10;;;;;;;10.72;5.70;;;;;;;7.97;79.87;101296.12;1692573;82;21459;-72
2021/10/17 06:52:36;;;;;;;8.73;5.65;;;;;;;8.00;79.89;101297.00;1703918;82;20933;-72
2021/10/17 06:55:02;;;;;;;16.70;7.08;;;;;;;8.02;79.89;101291.43;1711551;81;21479;-72
2021/10/17 06:57:28;;;;;;;10.45;5.87;;;;;;;8.04;79.91;101295.73;1690215;81;21479;-72
2021/10/17 06:59:54;;;;;;;14.20;5.67;;;;;;;8.06;79.93;101300.47;1690023;82;20886;-72
2021/10/17 07:02:21;;;;;;;13.73;6.03;;;;;;;8.08;79.91;101290.17;1697133;82;21745;-72
2021/10/17 07:04:48;;;;;;;10.13;5.22;;;;;;;8.09;79.89;101298.34;1690511;83;21590;-72
2021/10/17 07:07:14;;;;;;;10.97;5.80;;;;;;;8.11;79.89;101304.36;1691914;84;20922;-72
2021/10/17 07:09:40;;;;;;;7.60;5.83;;;;;;;8.13;79.98;101301.36;1695527;83;21830;-72
2021/10/17 07:12:06;;;;;;;13.70;6.50;;;;;;;8.17;79.96;101303.09;1696544;83;21620;-72
2021/10/17 07:14:32;;;;;;;9.55;5.60;;;;;;;8.19;79.96;101297.53;1691285;82;21822;-72
2021/10/17 07:16:59;;;;;;;9.78;5.42;;;;;;;8.12;79.98;101281.19;1692019;84;21040;-72
2021/10/17 07:19:34;;;;;;;8.95;5.87;;;;;;;8.25;80.00;101301.42;1699690;82;21522;-72
2021/10/17 07:22:00;;;;;;;9.83;4.85;;;;;;;8.28;79.99;101306.59;1701721;84;21368;-72
2021/10/17 07:24:26;;;;;;;10.53;5.90;;;;;;;8.32;80.03;101305.72;1695282;82;21435;-72
2021/10/17 07:26:52;;;;;;;11.03;5.37;;;;;;;8.35;80.03;101304.48;1697144;82;21447;-72
2021/10/17 07:29:18;;;;;;;7.60;4.53;;;;;;;8.38;80.04;101301.91;1677413;83;21861;-72
2021/10/17 07:31:44;;;;;;;6.40;4.70;;;;;;;8.42;80.04;101303.65;1691088;84;20933;-72
2021/10/17 07:34:12;;;;;;;11.48;5.60;;;;;;;8.45;80.02;101303.66;1696156;83;21406;-72
2021/10/17 07:36:38;;;;;;;10.93;4.97;;;;;;;8.48;80.03;101303.67;1691348;82;20874;-72
2021/10/17 07:39:05;;;;;;;8.05;4.90;;;;;;;8.51;80.02;101306.27;1704768;82;21438;-72
2021/10/17 07:41:31;;;;;;;11.08;5.92;;;;;;;8.53;80.03;101305.84;1703315;82;21372;-72
2021/10/17 07:43:57;;;;;;;9.85;5.83;;;;;;;8.55;80.03;101304.55;1698552;82;20910;-72
2021/10/17 07:46:23;;;;;;;11.07;5.27;;;;;;;8.57;80.03;101302.41;1681840;82;20878;-72
2021/10/17 07:48:49;;;;;;;12.80;5.73;;;;;;;8.61;80.05;101301.57;1703167;82;21941;-72
2021/10/17 07:51:15;;;;;;;10.90;6.17;;;;;;;8.64;80.02;101300.72;1704823;82;21490;-72
2021/10/17 07:53:41;;;;;;;11.50;6.20;;;;;;;8.65;80.04;101306.31;1693688;83;20894;-72
2021/10/17 07:56:07;;;;;;;14.37;6.57;;;;;;;8.69;80.08;101305.89;1695658;84;20932;-72
2021/10/17 07:58:33;;;;;;;10.63;6.33;;;;;;;8.70;80.07;101307.19;1704348;82;20982;-72
2021/10/17 08:00:58;;;;;;;10.97;7.00;;;;;;;8.71;80.01;101310.20;1697019;84;20854;-72
2021/10/17 08:03:25;;;;;;;16.50;6.37;;;;;;;8.72;80.06;101314.92;1697230;82;21707;-72
2021/10/17 08:05:51;;;;;;;11.57;6.22;;;;;;;8.72;80.09;101309.34;1694611;82;23758;-72
2021/10/17 08:08:17;;;;;;;10.03;6.47;;;;;;;8.73;80.07;101308.91;1705720;82;20858;-72
2021/10/17 08:10:43;;;;;;;12.90;6.57;;;;;;;8.76;80.08;101315.36;1701895;82;20905;-72
2021/10/17 08:13:09;;;;;;;12.13;6.00;;;;;;;8.77;80.09;101315.80;1687527;84;20964;-72
2021/10/17 08:15:37;;;;;;;9.55;5.78;;;;;;;8.77;80.05;101313.22;1700418;83;21525;-72
2021/10/17 08:18:03;;;;;;;9.07;6.13;;;;;;;8.78;80.09;101310.64;1697690;83;20910;-72
2021/10/17 08:20:29;;;;;;;12.07;6.60;;;;;;;8.79;80.08;101305.92;1681659;83;20905;-72
2021/10/17 08:22:56;;;;;;;9.13;6.20;;;;;;;8.82;80.09;101310.22;1688183;82;21450;-72
2021/10/17 08:25:22;;;;;;;8.08;6.22;;;;;;;8.84;80.11;101316.22;1705396;84;21529;-72
2021/10/17 08:27:47;;;;;;;11.07;6.43;;;;;;;8.86;80.11;101307.63;1691010;83;20966;-72
2021/10/17 08:30:14;;;;;;;8.60;6.20;;;;;;;8.88;80.09;101310.20;1705052;83;21426;-72
2021/10/17 08:32:40;;;;;;;12.82;6.95;;;;;;;8.90;80.11;101311.07;1684921;82;20961;-72
2021/10/17 08:35:07;;;;;;;18.15;7.17;;;;;;;8.94;80.11;101308.93;1701246;82;20934;-72
2021/10/17 08:37:34;;;;;;;13.72;6.95;;;;;;;8.97;80.16;101308.94;1704269;82;21155;-72
2021/10/17 08:40:01;;;;;;;11.27;6.77;;;;;;;9.01;80.15;101311.95;1690184;83;21466;-72
2021/10/17 08:42:27;;;;;;;;;;;;;;;9.04;80.20;101304.65;1695689;83;21189;-72
2021/10/17 08:44:56;;;;;;;13.38;6.80;;;;;;;9.10;80.22;101300.36;1688075;82;20776;-72
2021/10/17 08:47:23;;;;;;;13.10;7.10;;;;;;;9.16;80.23;101302.94;1687190;82;20906;-72
2021/10/17 08:49:51;;;;;;;12.98;7.80;;;;;;;9.21;80.18;101308.11;1688981;83;20934;-72
2021/10/17 08:52:17;;;;;;;12.95;7.60;;;;;;;9.25;80.18;101304.23;1686161;82;21327;-72
2021/10/17 08:54:45;;;;;;;11.35;6.47;;;;;;;9.29;80.17;101303.38;1691408;83;21038;-72
2021/10/17 08:57:14;;;;;;;12.15;6.90;;;;;;;9.34;80.13;101298.66;1682968;84;21500;-72
2021/10/17 08:59:49;;;;;;;13.93;7.60;;;;;;;9.35;80.08;101294.78;1680764;83;20894;-72
2021/10/17 09:02:18;;;;;;;13.03;7.45;;;;;;;9.37;80.14;101295.61;1677358;82;21139;-72
2021/10/17 09:05:06;;;;;;;15.13;7.00;;;;;;;9.40;80.13;101298.19;1664064;84;21419;-72
2021/10/17 09:07:32;;;;;;;11.57;7.15;;;;;;;9.42;80.12;101296.90;1663299;84;20914;-72
2021/10/17 09:10:16;;;;;;;12.60;7.03;;;;;;;9.43;80.11;101296.90;1687861;82;20963;-72
2021/10/17 09:12:48;;;;;;;18.15;8.30;;;;;;;9.47;80.09;101290.02;1678337;83;20949;-72
2021/10/17 09:15:29;;;;;;;10.13;7.12;;;;;;;9.49;80.14;101293.02;1687836;82;20922;-72
2021/10/17 09:18:19;;;;;;;11.55;6.65;;;;;;;9.53;80.11;101288.72;1695873;84;20909;-72
2021/10/17 09:20:51;;;;;;;15.13;7.22;;;;;;;9.55;80.11;101294.74;1672926;84;20961;-72
2021/10/17 09:23:29;;;;;;;14.50;7.10;;;;;;;9.58;80.12;101293.02;1675458;84;20965;-72
2021/10/17 09:25:58;;;;;;;8.78;6.08;;;;;;;9.61;80.10;101296.89;1673130;84;21000;-72
2021/10/17 09:28:28;;;;;;;12.43;7.45;;;;;;;9.65;80.09;101300.77;1674406;85;20957;-71
2021/10/17 09:31:07;;;;;;;10.08;6.53;;;;;;;9.66;80.08;101293.02;1671905;85;20942;-71
2021/10/17 09:33:44;;;;;;;9.75;6.37;;;;;;;9.69;80.11;101300.76;1645343;85;40642;-75
2021/10/17 09:36:24;;;;;;;14.80;7.20;;;;;;;9.72;80.03;101300.75;1664485;85;21003;-73
2021/10/17 09:38:56;;;;;;;12.35;6.60;;;;;;;9.71;79.99;101293.87;1660199;84;20998;-73
2021/10/17 09:41:34;;;;;;;10.28;5.50;;;;;;;9.72;80.02;101299.45;1675239;84;20922;-74
2021/10/17 09:44:00;;;;;;;11.43;6.58;;;;;;;9.76;80.05;101296.44;1659976;85;20943;-72
2021/10/17 09:46:27;;;;;;;10.65;6.83;;;;;;;9.79;80.04;101298.59;1677509;85;20901;-73
2021/10/17 09:48:55;;;;;;;12.70;6.30;;;;;;;9.84;80.00;101294.70;1657633;84;20977;-72
2021/10/17 09:51:29;;;;;;;13.88;6.12;;;;;;;9.90;79.99;101294.66;1685403;82;20882;-72
2021/10/17 09:53:59;;;;;;;13.00;6.60;;;;;;;9.96;80.01;101285.61;1704729;83;20914;-72
2021/10/17 09:56:40;;;;;;;10.98;6.45;;;;;;;10.03;80.03;101288.60;1702763;83;20906;-72
2021/10/17 09:59:10;;;;;;;12.85;5.83;;;;;;;10.14;80.05;101292.45;1672417;82;20867;-72
2021/10/17 10:01:38;;;;;;;8.48;5.50;;;;;;;10.25;79.97;101290.28;1705863;83;20926;-73
2021/10/17 10:04:08;;;;;;;13.00;4.92;;;;;;;10.36;79.80;101279.05;1708349;82;20950;-73
2021/10/17 10:06:35;;;;;;;10.70;4.85;;;;;;;10.40;79.77;101276.41;1709021;82;20910;-73
2021/10/17 10:09:04;;;;;;;10.35;5.80;;;;;;;10.44;79.73;101273.38;1698684;83;25722;-73
2021/10/17 10:11:32;;;;;;;8.28;4.37;;;;;;;10.48;79.63;101277.66;1705342;82;20902;-73
2021/10/17 10:14:04;;;;;;;7.42;4.87;;;;;;;10.50;79.61;101277.22;1706007;82;20898;-73
2021/10/17 10:16:32;;;;;;;9.60;5.03;;;;;;;10.53;79.56;101271.60;1708481;82;20897;-73
2021/10/17 10:19:08;;;;;;;8.80;5.20;;;;;;;10.55;79.50;101277.63;1708121;82;20906;-71
2021/10/17 10:21:37;;;;;;;12.05;5.75;;;;;;;10.57;79.48;101272.02;1692466;82;20954;-71
2021/10/17 10:24:07;;;;;;;10.55;5.78;;;;;;;10.60;79.55;101273.72;1700512;82;20941;-72
2021/10/17 10:26:35;;;;;;;11.68;5.00;;;;;;;10.65;79.58;101274.55;1696229;82;20957;-71
2021/10/17 10:29:02;;;;;;;18.07;5.28;;;;;;;10.71;79.47;101274.95;1699164;82;21413;-71
2021/10/17 10:31:53;;;;;;;8.68;4.40;;;;;;;10.79;79.42;101273.19;1706904;82;20946;-71
2021/10/17 10:34:38;;;;;;;8.75;4.67;;;;;;;10.93;79.46;101279.09;1703223;83;20941;-71
2021/10/17 10:37:16;;;;;;;10.65;5.00;;;;;;;11.09;79.45;101267.77;1699119;83;20906;-71
2021/10/17 10:40:08;;;;;;;8.38;4.08;;;;;;;11.27;79.36;101274.53;1686259;84;20942;-71
2021/10/17 10:42:44;;;;;;;6.42;3.65;;;;;;;11.42;79.25;101273.55;1692167;83;20863;-71
2021/10/17 10:45:36;;;;;;;7.22;4.10;;;;;;;11.47;78.99;101270.01;1689393;84;20946;-72
2021/10/17 10:48:17;;;;;;;10.60;5.47;;;;;;;11.54;78.92;101269.08;1687041;84;20914;-71
2021/10/17 10:50:50;;;;;;;10.93;3.67;;;;;;;11.61;78.86;101268.59;1691739;83;20891;-71
2021/10/17 10:53:51;;;;;;;54.03;4.67;;;;;;;11.69;78.82;101268.52;1680510;84;20898;-71
2021/10/17 10:56:40;;;;;;;7.95;3.42;;;;;;;11.75;78.79;101261.54;1690105;83;20906;-73
2021/10/17 10:59:07;;;;;;;6.80;3.37;;;;;;;11.86;78.62;101265.34;1683341;83;20955;-73
2021/10/17 11:02:02;;;;;;;13.13;3.33;;;;;;;11.92;78.41;101266.58;1687645;83;20982;-73
2021/10/17 11:04:46;;;;;;;11.73;4.40;;;;;;;11.93;78.35;101261.38;1592068;88;21577;-73
2021/10/17 11:07:32;;;;;;;6.55;3.40;;;;;;;11.95;78.06;101253.59;1596358;88;21125;-73
2021/10/17 11:10:26;;;;;;;6.87;3.60;;;;;;;11.96;78.18;101256.56;1599959;88;20994;-73
2021/10/17 11:12:59;;;;;;;10.18;3.95;;;;;;;11.95;78.14;101256.61;1596640;88;21010;-74
2021/10/17 11:15:29;;;;;;;6.65;2.95;;;;;;;11.92;77.92;101254.48;1598729;88;21034;-74
2021/10/17 11:18:05;;;;;;;7.53;3.15;;;;;;;11.84;77.82;101251.11;1573836;89;21074;-74
2021/10/17 11:20:41;;;;;;;8.63;4.30;;;;;;;11.78;77.69;101253.77;1592143;88;20966;-72
2021/10/17 11:23:24;;;;;;;8.15;3.00;;;;;;;11.75;77.74;101255.50;1597103;87;21029;-72
2021/10/17 11:25:53;;;;;;;7.97;2.87;;;;;;;11.72;77.68;101242.58;1591185;88;21444;-72
2021/10/17 11:28:24;;;;;;;8.03;2.20;;;;;;;11.72;77.54;101247.76;1597846;88;21011;-72
2021/10/17 11:31:10;;;;;;;5.78;2.67;;;;;;;11.70;77.48;101241.30;1592894;88;21088;-72
2021/10/17 11:33:45;;;;;;;7.80;2.87;;;;;;;11.74;77.47;101235.64;1609653;88;20931;-72
2021/10/17 11:36:14;;;;;;;6.10;2.83;;;;;;;11.85;77.55;101237.72;1604263;87;21025;-72
2021/10/17 11:38:42;;;;;;;9.10;3.25;;;;;;;11.96;77.48;101228.05;1604470;87;20999;-72